Wiley, Colorado
Current Conditions -  °F | °C
As of 10:53 AM on Monday 24 Nov 2014 (Local Time) from KLAA Reporting Station
Clear Clear  
Wind Chill: 37°   Ceiling: Unl
Heat Index: 43°   Visibility: 10mi
Dew Point: 17°   Wind: 12mph
Humidity: 35%   Direction: 300°WNW
Pressure: 29.96"   Gusts: NA
Location:  38.15°N, 102.72°W
Report Text: KLAA 241753Z AUTO 30010KT 10SM CLR 06/M08 A2996 RMK AO2 SLP152 T00611083 10061 21056 51002
Loading
Personal Weather Stations






























Interactive Weather Map New forecast layout! Learn more

10-Day Weather Forecast

Advertisements
Track Severe Weather on mobile